createdAt,value
2018-05-26T00:01:27.581Z,48.70
2018-05-26T00:04:01.186Z,48.70
2018-05-26T00:06:35.495Z,48.60
2018-05-26T00:09:09.211Z,48.60
2018-05-26T00:11:42.724Z,48.60
2018-05-26T00:14:17.232Z,49.20
2018-05-26T00:16:51.534Z,49.00
2018-05-26T00:19:25.122Z,48.90
2018-05-26T00:21:58.835Z,48.70
2018-05-26T00:24:32.451Z,48.90
2018-05-26T00:27:06.967Z,49.10
2018-05-26T00:29:40.487Z,49.00
2018-05-26T00:32:14.074Z,49.30
2018-05-26T00:34:47.818Z,49.40
2018-05-26T00:37:21.484Z,49.50
2018-05-26T00:39:55.770Z,49.70
2018-05-26T00:42:30.214Z,49.90
2018-05-26T00:45:03.923Z,49.90
2018-05-26T00:47:38.429Z,49.60
2018-05-26T00:50:12.142Z,49.60
2018-05-26T00:52:45.841Z,49.80
2018-05-26T00:55:19.559Z,49.80
2018-05-26T00:57:53.363Z,49.70
2018-05-26T01:00:27.791Z,50.20
2018-05-26T01:03:01.581Z,50.20
2018-05-26T01:05:36.008Z,50.90
2018-05-26T01:08:09.602Z,50.90
2018-05-26T01:10:43.406Z,50.70
2018-05-26T01:13:17.714Z,51.70
2018-05-26T01:15:51.403Z,51.20
2018-05-26T01:18:25.031Z,51.10
2018-05-26T01:20:58.838Z,51.10
2018-05-26T01:23:32.443Z,51.10
2018-05-26T01:26:06.864Z,51.50
2018-05-26T01:28:40.531Z,51.50
2018-05-26T01:31:14.262Z,52.00
2018-05-26T01:33:48.891Z,51.90
2018-05-26T01:36:22.410Z,51.90
2018-05-26T01:38:56.094Z,52.20
2018-05-26T01:41:30.386Z,52.00
2018-05-26T01:44:04.111Z,52.00
2018-05-26T01:46:37.826Z,52.30
2018-05-26T01:49:11.375Z,52.60
2018-05-26T01:51:45.089Z,52.40
2018-05-26T01:54:18.927Z,52.50
2018-05-26T01:56:52.446Z,52.60
2018-05-26T01:59:26.198Z,52.50
2018-05-26T02:01:59.939Z,52.80
2018-05-26T02:04:34.350Z,52.80
2018-05-26T02:07:08.129Z,52.80
2018-05-26T02:09:41.830Z,53.20
2018-05-26T02:12:16.392Z,53.20
2018-05-26T02:14:50.182Z,53.20
2018-05-26T02:17:23.794Z,53.40
2018-05-26T02:19:57.394Z,53.50
2018-05-26T02:22:31.057Z,53.60
2018-05-26T02:25:04.798Z,53.60
2018-05-26T02:27:38.397Z,53.60
2018-05-26T02:30:11.942Z,53.50
2018-05-26T02:32:45.609Z,53.90
2018-05-26T02:35:20.018Z,53.90
2018-05-26T02:37:53.829Z,53.90
2018-05-26T02:40:27.336Z,53.90
2018-05-26T02:43:01.027Z,54.20
2018-05-26T02:45:35.323Z,54.60
2018-05-26T02:48:09.019Z,54.60
2018-05-26T02:50:43.339Z,54.50
2018-05-26T02:53:16.927Z,54.50
2018-05-26T02:55:50.674Z,54.70
2018-05-26T02:58:24.474Z,54.80
2018-05-26T03:00:58.083Z,54.70
2018-05-26T03:03:31.786Z,54.80
2018-05-26T03:06:11.219Z,54.80
2018-05-26T03:08:50.543Z,55.00
2018-05-26T03:11:29.783Z,55.30
2018-05-26T03:14:09.064Z,55.30
2018-05-26T03:16:44.314Z,55.50
2018-05-26T03:19:18.781Z,55.90
2018-05-26T03:21:52.686Z,55.90
2018-05-26T03:24:26.294Z,55.70
2018-05-26T03:26:59.895Z,55.90
2018-05-26T03:29:33.494Z,56.20
2018-05-26T03:32:07.777Z,56.10
2018-05-26T03:34:41.509Z,56.10
2018-05-26T03:37:15.299Z,56.10
2018-05-26T03:39:48.921Z,56.20
2018-05-26T03:42:22.726Z,56.20
2018-05-26T03:44:56.451Z,56.50
2018-05-26T03:47:30.127Z,56.60
2018-05-26T03:50:03.939Z,56.70
2018-05-26T03:52:37.747Z,56.60
2018-05-26T03:58:20.995Z,56.90
2018-05-26T04:00:54.679Z,56.80
2018-05-26T04:03:28.266Z,57.50
2018-05-26T04:06:02.773Z,57.10
2018-05-26T04:08:36.411Z,57.10
2018-05-26T04:11:10.143Z,57.20
2018-05-26T04:13:43.826Z,57.20
2018-05-26T04:16:17.422Z,57.30
2018-05-26T04:18:51.918Z,57.50
2018-05-26T04:21:25.653Z,57.40
2018-05-26T04:23:59.255Z,57.20
2018-05-26T04:26:33.058Z,57.30
2018-05-26T04:29:06.729Z,57.30
2018-05-26T04:31:40.281Z,57.80
2018-05-26T04:34:14.071Z,57.50
2018-05-26T04:36:47.873Z,57.90
2018-05-26T04:39:21.375Z,57.80
2018-05-26T04:41:56.406Z,57.40
2018-05-26T04:44:30.174Z,57.30
2018-05-26T04:47:03.870Z,57.80
2018-05-26T04:49:37.517Z,57.50
2018-05-26T04:52:11.206Z,57.70
2018-05-26T04:54:44.782Z,58.00
2018-05-26T04:57:19.346Z,58.00
2018-05-26T04:59:53.158Z,58.00
2018-05-26T05:02:26.749Z,57.90
2018-05-26T05:05:00.554Z,57.60
2018-05-26T05:07:34.155Z,57.80
2018-05-26T05:10:07.850Z,57.50
2018-05-26T05:12:41.568Z,57.80
2018-05-26T05:15:15.134Z,57.50
2018-05-26T05:17:48.662Z,58.10
2018-05-26T05:20:22.226Z,57.50
2018-05-26T05:22:55.854Z,57.60
2018-05-26T05:25:29.635Z,57.40
2018-05-26T05:28:03.369Z,57.40
2018-05-26T05:30:37.182Z,57.60
2018-05-26T05:33:10.987Z,57.70
2018-05-26T05:35:44.590Z,57.60
2018-05-26T05:38:19.091Z,57.30
2018-05-26T05:40:52.812Z,57.30
2018-05-26T05:43:26.623Z,57.10
2018-05-26T05:46:00.494Z,56.70
2018-05-26T05:48:34.222Z,57.40
2018-05-26T05:51:08.759Z,57.20
2018-05-26T05:53:42.368Z,56.60
2018-05-26T05:56:16.079Z,56.30
2018-05-26T05:58:49.678Z,56.40
2018-05-26T06:01:23.303Z,57.50
2018-05-26T06:03:56.847Z,56.90
2018-05-26T06:06:30.342Z,57.00
2018-05-26T06:09:04.069Z,56.80
2018-05-26T06:11:37.690Z,56.40
2018-05-26T06:14:11.559Z,56.30
2018-05-26T06:16:45.484Z,56.40
2018-05-26T06:19:19.893Z,56.50
2018-05-26T06:21:53.501Z,56.50
2018-05-26T06:24:27.014Z,56.40
2018-05-26T06:27:00.695Z,56.20
2018-05-26T06:29:34.502Z,56.20
2018-05-26T06:32:08.008Z,56.20
2018-05-26T06:34:41.590Z,56.00
2018-05-26T06:37:15.370Z,56.00
2018-05-26T06:39:48.915Z,55.50
2018-05-26T06:42:23.193Z,55.80
2018-05-26T06:44:56.850Z,55.80
2018-05-26T06:47:30.469Z,56.00
2018-05-26T06:50:04.125Z,56.10
2018-05-26T06:52:37.730Z,55.90
2018-05-26T06:55:11.335Z,55.70
2018-05-26T06:57:45.749Z,55.80
2018-05-26T07:00:19.347Z,55.80
2018-05-26T07:02:52.851Z,55.30
2018-05-26T07:05:26.438Z,55.30
2018-05-26T07:08:00.159Z,55.40
2018-05-26T07:10:34.660Z,55.80
2018-05-26T07:13:08.383Z,55.50
2018-05-26T07:15:42.192Z,55.60
2018-05-26T07:18:16.811Z,55.10
2018-05-26T07:20:50.642Z,55.00
2018-05-26T07:23:24.431Z,54.70
2018-05-26T07:25:58.852Z,55.00
2018-05-26T07:28:32.651Z,54.90
2018-05-26T07:31:06.252Z,54.60
2018-05-26T07:33:39.902Z,54.20
2018-05-26T07:36:13.514Z,54.70
2018-05-26T07:38:48.558Z,54.00
2018-05-26T07:41:22.130Z,54.00
2018-05-26T07:43:55.753Z,54.10
2018-05-26T07:46:29.486Z,54.00
2018-05-26T07:49:03.303Z,54.10
2018-05-26T07:51:37.106Z,53.30
2018-05-26T07:54:10.916Z,53.40
2018-05-26T07:56:45.330Z,54.20
2018-05-26T07:59:19.134Z,54.20
2018-05-26T08:01:53.152Z,53.20
2018-05-26T08:04:26.644Z,52.90
2018-05-26T08:07:00.160Z,52.50
2018-05-26T08:09:34.563Z,52.80
2018-05-26T08:12:08.986Z,52.20
2018-05-26T08:14:43.386Z,52.40
2018-05-26T08:17:16.985Z,52.40
2018-05-26T08:19:50.603Z,52.70
2018-05-26T08:22:24.411Z,52.60
2018-05-26T08:24:58.034Z,52.10
2018-05-26T08:27:31.819Z,52.60
2018-05-26T08:30:05.627Z,51.70
2018-05-26T08:32:39.314Z,51.50
2018-05-26T08:35:13.731Z,51.70
2018-05-26T08:37:48.171Z,51.80
2018-05-26T08:40:21.720Z,51.60
2018-05-26T08:42:55.475Z,50.00
2018-05-26T08:45:29.315Z,50.00
2018-05-26T08:48:02.799Z,49.30
2018-05-26T08:50:36.550Z,50.30
2018-05-26T08:53:10.279Z,49.90
2018-05-26T08:55:43.772Z,48.90
2018-05-26T08:58:17.467Z,48.70
2018-05-26T09:00:51.027Z,49.80
2018-05-26T09:03:24.683Z,49.80
2018-05-26T09:05:58.492Z,49.90
2018-05-26T09:08:32.299Z,49.60
2018-05-26T09:11:05.903Z,48.40
2018-05-26T09:13:39.593Z,48.00
2018-05-26T09:16:14.602Z,48.40
2018-05-26T09:18:48.431Z,48.40
2018-05-26T09:21:22.224Z,48.40
2018-05-26T09:23:55.955Z,47.60
2018-05-26T09:26:30.375Z,47.10
2018-05-26T09:29:04.178Z,46.50
2018-05-26T09:31:38.466Z,46.50
2018-05-26T09:34:12.102Z,46.50
2018-05-26T09:36:45.804Z,46.30
2018-05-26T09:39:20.421Z,45.90
2018-05-26T09:41:54.709Z,45.50
2018-05-26T09:44:28.442Z,45.40
2018-05-26T09:47:02.046Z,45.00
2018-05-26T09:49:36.471Z,45.00
2018-05-26T09:52:10.275Z,45.00
2018-05-26T09:54:43.967Z,45.40
2018-05-26T09:57:17.689Z,45.40
2018-05-26T09:59:51.204Z,43.70
2018-05-26T10:02:24.886Z,43.60
2018-05-26T10:04:58.594Z,44.00
2018-05-26T10:07:32.154Z,43.90
2018-05-26T10:10:05.704Z,41.90
2018-05-26T10:12:39.367Z,43.00
2018-05-26T10:15:12.890Z,43.60
2018-05-26T10:17:46.700Z,42.30
2018-05-26T10:20:20.706Z,42.50
2018-05-26T10:22:55.114Z,42.20
2018-05-26T10:25:28.925Z,42.10
2018-05-26T10:28:02.462Z,41.90
2018-05-26T10:30:36.542Z,39.50
2018-05-26T10:33:10.142Z,39.20
2018-05-26T10:35:43.943Z,38.60
2018-05-26T10:38:17.577Z,39.90
2018-05-26T10:40:51.354Z,38.10
2018-05-26T10:43:24.947Z,36.30
2018-05-26T10:49:00.438Z,37.10
2018-05-26T10:51:34.431Z,36.80
2018-05-26T10:54:08.851Z,35.90
2018-05-26T10:56:42.523Z,35.90
2018-05-26T10:59:16.239Z,36.30
2018-05-26T11:01:49.763Z,34.60
2018-05-26T11:04:23.331Z,34.50
2018-05-26T11:06:56.925Z,34.70
2018-05-26T11:09:30.665Z,34.60
2018-05-26T11:12:04.462Z,33.00
2018-05-26T11:14:38.147Z,32.70
2018-05-26T11:17:11.761Z,34.40
2018-05-26T11:19:45.561Z,33.60
2018-05-26T11:22:19.354Z,33.30
2018-05-26T11:24:53.083Z,32.80
2018-05-26T11:27:26.582Z,33.40
2018-05-26T11:30:00.288Z,33.20
2018-05-26T11:32:33.788Z,31.70
2018-05-26T11:35:07.370Z,32.80
2018-05-26T11:37:41.901Z,30.50
2018-05-26T11:40:15.714Z,30.50
2018-05-26T11:42:50.003Z,30.60
2018-05-26T11:45:23.739Z,30.60
2018-05-26T11:47:57.331Z,30.10
2018-05-26T11:50:31.058Z,30.10
2018-05-26T11:53:04.946Z,30.60
2018-05-26T11:55:38.656Z,30.70
2018-05-26T11:58:12.222Z,31.60
2018-05-26T12:00:47.383Z,30.30
2018-05-26T12:03:20.990Z,30.30
2018-05-26T12:05:54.791Z,30.00
2018-05-26T12:08:28.390Z,30.30
2018-05-26T12:11:02.047Z,30.10
2018-05-26T12:13:35.599Z,31.10
2018-05-26T12:16:09.110Z,30.20
2018-05-26T12:18:42.626Z,29.90
2018-05-26T12:21:17.215Z,30.10
2018-05-26T12:23:51.023Z,30.00
2018-05-26T12:26:24.538Z,30.00
2018-05-26T12:28:59.047Z,30.60
2018-05-26T12:31:32.850Z,30.50
2018-05-26T12:34:06.617Z,29.50
2018-05-26T12:36:40.138Z,29.20
2018-05-26T12:39:13.925Z,28.90
2018-05-26T12:41:47.596Z,29.80
2018-05-26T12:44:21.334Z,28.30
2018-05-26T12:46:56.393Z,28.80
2018-05-26T12:49:30.102Z,28.80
2018-05-26T12:52:03.627Z,27.40
2018-05-26T12:54:37.994Z,28.40
2018-05-26T12:57:11.732Z,28.20
2018-05-26T12:59:45.403Z,28.10
2018-05-26T13:02:19.059Z,28.00
2018-05-26T13:04:52.732Z,27.60
2018-05-26T13:07:26.502Z,28.80
2018-05-26T13:10:00.148Z,28.20
2018-05-26T13:12:33.943Z,26.70
2018-05-26T13:15:07.819Z,25.90
2018-05-26T13:17:41.562Z,26.70
2018-05-26T13:20:15.163Z,27.40
2018-05-26T13:22:48.965Z,28.00
2018-05-26T13:25:22.746Z,27.60
2018-05-26T13:27:56.562Z,26.90
2018-05-26T13:30:30.275Z,27.20
2018-05-26T13:33:03.842Z,27.40
2018-05-26T13:35:37.786Z,25.30
2018-05-26T13:38:11.455Z,26.50
2018-05-26T13:40:45.143Z,26.50
2018-05-26T13:43:19.005Z,27.00
2018-05-26T13:45:52.622Z,25.00
2018-05-26T13:48:26.387Z,26.20
2018-05-26T13:51:00.119Z,26.50
2018-05-26T13:53:33.885Z,27.10
2018-05-26T13:56:07.630Z,27.20
2018-05-26T13:58:41.419Z,26.20
2018-05-26T14:01:15.232Z,26.20
2018-05-26T14:03:49.038Z,26.20
2018-05-26T14:06:22.688Z,27.00
2018-05-26T14:08:56.321Z,27.40
2018-05-26T14:11:30.251Z,26.10
2018-05-26T14:14:03.857Z,25.20
2018-05-26T14:16:37.697Z,25.60
2018-05-26T14:19:11.343Z,26.20
2018-05-26T14:21:44.954Z,25.90
2018-05-26T14:24:18.461Z,26.50
2018-05-26T14:26:52.053Z,26.90
2018-05-26T14:29:25.760Z,25.90
2018-05-26T14:31:59.674Z,26.00
2018-05-26T14:34:33.688Z,25.80
2018-05-26T14:37:07.282Z,24.30
2018-05-26T14:39:40.995Z,24.70
2018-05-26T14:42:15.366Z,26.10
2018-05-26T14:44:48.971Z,25.80
2018-05-26T14:47:22.906Z,25.90
2018-05-26T14:49:56.809Z,25.30
2018-05-26T14:52:30.526Z,26.00
2018-05-26T14:55:04.122Z,25.80
2018-05-26T14:57:38.406Z,26.00
2018-05-26T15:00:12.143Z,26.00
2018-05-26T15:02:45.754Z,25.70
2018-05-26T15:05:19.539Z,25.40
2018-05-26T15:07:53.130Z,25.60
2018-05-26T15:10:26.755Z,25.30
2018-05-26T15:13:00.347Z,25.80
2018-05-26T15:15:33.950Z,25.80
2018-05-26T15:18:07.762Z,25.30
2018-05-26T15:20:41.282Z,25.30
2018-05-26T15:23:14.958Z,25.60
2018-05-26T15:25:48.767Z,24.90
2018-05-26T15:28:22.438Z,25.80
2018-05-26T15:30:56.375Z,26.30
2018-05-26T15:33:30.183Z,26.40
2018-05-26T15:36:03.909Z,25.90
2018-05-26T15:38:37.459Z,26.40
2018-05-26T15:41:11.190Z,25.90
2018-05-26T15:43:44.862Z,26.00
2018-05-26T15:46:18.481Z,25.80
2018-05-26T15:48:52.099Z,26.10
2018-05-26T15:51:25.802Z,26.60
2018-05-26T15:53:59.307Z,25.30
2018-05-26T15:56:32.874Z,25.40
2018-05-26T15:59:06.599Z,26.40
2018-05-26T16:01:40.330Z,26.30
2018-05-26T16:04:14.019Z,26.40
2018-05-26T16:06:47.538Z,26.00
2018-05-26T16:09:21.215Z,26.70
2018-05-26T16:11:54.815Z,26.30
2018-05-26T16:14:28.490Z,26.10
2018-05-26T16:17:02.034Z,26.30
2018-05-26T16:19:35.818Z,25.60
2018-05-26T16:22:09.534Z,25.80
2018-05-26T16:24:43.102Z,26.00
2018-05-26T16:27:16.648Z,26.40
2018-05-26T16:29:50.296Z,25.60
2018-05-26T16:32:23.951Z,26.30
2018-05-26T16:34:57.627Z,25.90
2018-05-26T16:37:32.250Z,26.20
2018-05-26T16:40:05.964Z,26.20
2018-05-26T16:42:39.467Z,26.10
2018-05-26T16:45:13.121Z,26.10
2018-05-26T16:47:46.666Z,25.90
2018-05-26T16:50:20.466Z,26.50
2018-05-26T16:52:54.061Z,26.80
2018-05-26T16:55:27.662Z,26.80
2018-05-26T16:58:02.086Z,27.10
2018-05-26T17:00:35.885Z,27.00
2018-05-26T17:03:10.315Z,28.40
2018-05-26T17:05:44.118Z,28.00
2018-05-26T17:08:17.781Z,27.90
2018-05-26T17:10:51.326Z,27.20
2018-05-26T17:13:25.020Z,28.20
2018-05-26T17:15:58.722Z,28.50
2018-05-26T17:18:32.303Z,28.00
2018-05-26T17:21:06.131Z,28.10
2018-05-26T17:23:39.667Z,29.20
2018-05-26T17:26:13.309Z,28.30
2018-05-26T17:28:46.818Z,28.80
2018-05-26T17:31:20.490Z,28.90
2018-05-26T17:33:54.047Z,27.90
2018-05-26T17:36:27.811Z,28.50
2018-05-26T17:39:01.552Z,28.50
2018-05-26T17:41:35.138Z,29.30
2018-05-26T17:44:08.667Z,28.50
2018-05-26T17:46:42.417Z,28.90
2018-05-26T17:49:16.155Z,29.40
2018-05-26T17:51:49.745Z,30.30
2018-05-26T17:54:23.357Z,30.00
2018-05-26T17:56:56.953Z,29.70
2018-05-26T17:59:30.643Z,30.50
2018-05-26T18:02:04.568Z,30.00
2018-05-26T18:04:38.190Z,29.70
2018-05-26T18:07:12.587Z,39.70
2018-05-26T18:09:47.023Z,38.90
2018-05-26T18:12:20.815Z,38.70
2018-05-26T18:14:54.615Z,53.90
2018-05-26T18:17:28.364Z,45.30
2018-05-26T18:20:02.227Z,39.40
2018-05-26T18:22:36.035Z,38.40
2018-05-26T18:25:09.844Z,41.60
2018-05-26T18:27:43.647Z,51.10
2018-05-26T18:30:17.371Z,45.00
2018-05-26T18:32:51.086Z,49.80
2018-05-26T18:35:24.571Z,38.70
2018-05-26T18:37:58.254Z,42.30
2018-05-26T18:40:31.880Z,42.10
2018-05-26T18:43:05.531Z,51.70
2018-05-26T18:45:39.254Z,54.20
2018-05-26T18:48:13.755Z,51.30
2018-05-26T18:50:47.375Z,51.30
2018-05-26T18:53:20.993Z,53.00
2018-05-26T18:55:54.685Z,54.10
2018-05-26T18:58:28.289Z,52.50
2018-05-26T19:01:02.711Z,53.80
2018-05-26T19:03:36.383Z,53.80
2018-05-26T19:06:10.120Z,50.50
2018-05-26T19:08:43.846Z,49.40
2018-05-26T19:11:17.722Z,54.80
2018-05-26T19:13:51.408Z,55.90
2018-05-26T19:16:24.994Z,56.60
2018-05-26T19:18:58.731Z,52.00
2018-05-26T19:21:32.347Z,55.40
2018-05-26T19:24:06.011Z,55.70
2018-05-26T19:26:39.998Z,50.40
2018-05-26T19:29:13.643Z,52.30
2018-05-26T19:31:47.359Z,53.20
2018-05-26T19:34:21.867Z,45.20
2018-05-26T19:36:55.823Z,45.20
2018-05-26T19:39:31.018Z,46.80
2018-05-26T19:42:04.589Z,46.70
2018-05-26T19:44:38.242Z,43.70
2018-05-26T19:47:12.442Z,41.50
2018-05-26T19:49:46.048Z,40.60
2018-05-26T19:52:19.575Z,42.10
2018-05-26T19:54:53.337Z,41.60
2018-05-26T19:57:26.851Z,45.30
2018-05-26T20:00:00.651Z,40.60
2018-05-26T20:02:34.450Z,43.20
2018-05-26T20:05:08.264Z,42.90
2018-05-26T20:07:42.068Z,42.60
2018-05-26T20:10:16.691Z,41.80
2018-05-26T20:12:50.493Z,42.20
2018-05-26T20:15:24.103Z,42.90
2018-05-26T20:17:57.802Z,42.80
2018-05-26T20:20:31.716Z,42.90
2018-05-26T20:23:05.306Z,44.00
2018-05-26T20:25:38.905Z,44.00
2018-05-26T20:28:12.411Z,44.80
2018-05-26T20:30:45.990Z,45.30
2018-05-26T20:33:19.614Z,45.20
2018-05-26T20:35:53.278Z,45.20
2018-05-26T20:38:27.123Z,44.20
2018-05-26T20:41:00.925Z,44.80
2018-05-26T20:43:34.560Z,46.60
2018-05-26T20:46:08.329Z,44.90
2018-05-26T20:48:42.138Z,44.80
2018-05-26T20:51:15.948Z,45.10
2018-05-26T20:53:49.542Z,46.60
2018-05-26T20:56:23.360Z,46.00
2018-05-26T20:58:57.776Z,50.40
2018-05-26T21:01:31.463Z,50.50
2018-05-26T21:04:05.046Z,45.50
2018-05-26T21:06:38.604Z,47.00
2018-05-26T21:09:13.062Z,47.20
2018-05-26T21:11:46.710Z,47.20
2018-05-26T21:14:20.261Z,45.00
2018-05-26T21:16:55.642Z,46.20
2018-05-26T21:19:29.238Z,46.00
2018-05-26T21:22:03.045Z,47.70
2018-05-26T21:24:36.646Z,46.80
2018-05-26T21:27:11.066Z,49.10
2018-05-26T21:29:44.875Z,48.40
2018-05-26T21:32:19.386Z,47.00
2018-05-26T21:34:53.098Z,46.80
2018-05-26T21:37:26.907Z,48.40
2018-05-26T21:40:01.327Z,47.30
2018-05-26T21:42:34.954Z,47.50
2018-05-26T21:45:08.527Z,46.30
2018-05-26T21:47:42.326Z,45.90
2018-05-26T21:50:16.139Z,46.60
2018-05-26T21:52:50.434Z,47.70
2018-05-26T21:55:24.071Z,47.40
2018-05-26T21:57:57.813Z,48.20
2018-05-26T22:00:31.563Z,47.60
2018-05-26T22:03:06.082Z,49.20
2018-05-26T22:05:39.799Z,49.60
2018-05-26T22:08:14.310Z,49.10
2018-05-26T22:10:47.927Z,49.10
2018-05-26T22:13:22.299Z,47.70
2018-05-26T22:15:56.040Z,47.70
2018-05-26T22:18:30.336Z,48.60
2018-05-26T22:21:04.055Z,48.50
2018-05-26T22:23:37.698Z,50.60
2018-05-26T22:26:12.174Z,48.30
2018-05-26T22:28:46.699Z,51.30
2018-05-26T22:31:20.277Z,51.30
2018-05-26T22:33:53.906Z,50.90
2018-05-26T22:36:27.598Z,49.00
2018-05-26T22:39:01.107Z,48.10
2018-05-26T22:41:35.726Z,49.00
2018-05-26T22:44:09.535Z,48.90
2018-05-26T22:46:43.349Z,50.10
2018-05-26T22:49:16.914Z,48.60
2018-05-26T22:51:50.430Z,49.20
2018-05-26T22:54:24.014Z,49.30
2018-05-26T22:56:57.616Z,49.70
2018-05-26T22:59:31.342Z,50.90
2018-05-26T23:02:04.948Z,52.70
2018-05-26T23:04:39.235Z,51.90
2018-05-26T23:07:12.971Z,51.40
2018-05-26T23:09:46.479Z,53.30
2018-05-26T23:12:20.990Z,52.70
2018-05-26T23:14:54.791Z,52.80
2018-05-26T23:17:28.313Z,51.90
2018-05-26T23:20:03.576Z,51.90
2018-05-26T23:22:37.943Z,53.60
2018-05-26T23:25:12.206Z,50.50
2018-05-26T23:27:46.572Z,51.70
2018-05-26T23:30:20.970Z,52.80
2018-05-26T23:32:54.564Z,52.10
2018-05-26T23:35:28.209Z,51.80
2018-05-26T23:38:01.818Z,50.90
2018-05-26T23:40:35.418Z,52.70
2018-05-26T23:43:09.808Z,52.70
2018-05-26T23:45:43.537Z,52.70
2018-05-26T23:48:17.346Z,52.00
2018-05-26T23:50:50.943Z,53.20
2018-05-26T23:53:24.739Z,52.60
2018-05-26T23:55:58.368Z,53.20
2018-05-26T23:58:32.357Z,53.90
